sensor_id;sensor_type;location;lat;lon;timestamp;P1;durP1;ratioP1;P2;durP2;ratioP2
70132;SDS011;57495;49.922;7.966;2023-02-28T00:00:52;4.53;;;1.60;;
70132;SDS011;57495;49.922;7.966;2023-02-28T00:02:54;5.72;;;1.40;;
70132;SDS011;57495;49.922;7.966;2023-02-28T00:04:56;5.05;;;1.38;;
70132;SDS011;57495;49.922;7.966;2023-02-28T00:07:03;3.58;;;1.38;;
70132;SDS011;57495;49.922;7.966;2023-02-28T00:09:06;3.40;;;1.30;;
70132;SDS011;57495;49.922;7.966;2023-02-28T00:11:08;5.07;;;1.27;;
70132;SDS011;57495;49.922;7.966;2023-02-28T00:13:11;3.13;;;1.00;;
70132;SDS011;57495;49.922;7.966;2023-02-28T00:15:13;3.97;;;1.20;;
70132;SDS011;57495;49.922;7.966;2023-02-28T00:17:14;3.13;;;1.05;;
70132;SDS011;57495;49.922;7.966;2023-02-28T00:19:17;4.38;;;1.25;;
70132;SDS011;57495;49.922;7.966;2023-02-28T00:21:19;5.30;;;1.65;;
70132;SDS011;57495;49.922;7.966;2023-02-28T00:23:21;4.32;;;1.50;;
70132;SDS011;57495;49.922;7.966;2023-02-28T00:25:24;4.95;;;1.40;;
70132;SDS011;57495;49.922;7.966;2023-02-28T00:27:26;4.82;;;1.70;;
70132;SDS011;57495;49.922;7.966;2023-02-28T00:29:27;4.05;;;1.45;;
70132;SDS011;57495;49.922;7.966;2023-02-28T00:31:29;4.10;;;1.77;;
70132;SDS011;57495;49.922;7.966;2023-02-28T00:33:30;5.45;;;1.55;;
70132;SDS011;57495;49.922;7.966;2023-02-28T00:35:32;4.63;;;1.33;;
70132;SDS011;57495;49.922;7.966;2023-02-28T00:37:33;4.25;;;1.38;;
70132;SDS011;57495;49.922;7.966;2023-02-28T00:39:36;3.65;;;1.40;;
70132;SDS011;57495;49.922;7.966;2023-02-28T00:41:39;4.03;;;1.48;;
70132;SDS011;57495;49.922;7.966;2023-02-28T00:43:40;4.10;;;1.50;;
70132;SDS011;57495;49.922;7.966;2023-02-28T00:45:42;4.43;;;1.63;;
70132;SDS011;57495;49.922;7.966;2023-02-28T00:47:44;4.30;;;1.30;;
70132;SDS011;57495;49.922;7.966;2023-02-28T00:49:46;3.83;;;1.38;;
70132;SDS011;57495;49.922;7.966;2023-02-28T00:51:48;4.53;;;1.55;;
70132;SDS011;57495;49.922;7.966;2023-02-28T00:53:50;4.75;;;1.40;;
70132;SDS011;57495;49.922;7.966;2023-02-28T00:55:51;6.82;;;1.52;;
70132;SDS011;57495;49.922;7.966;2023-02-28T00:57:54;4.78;;;1.80;;
70132;SDS011;57495;49.922;7.966;2023-02-28T00:59:55;4.63;;;1.77;;
70132;SDS011;57495;49.922;7.966;2023-02-28T01:01:57;6.03;;;1.60;;
70132;SDS011;57495;49.922;7.966;2023-02-28T01:03:58;5.38;;;1.65;;
70132;SDS011;57495;49.922;7.966;2023-02-28T01:06:00;5.28;;;2.05;;
70132;SDS011;57495;49.922;7.966;2023-02-28T01:08:01;4.60;;;1.60;;
70132;SDS011;57495;49.922;7.966;2023-02-28T01:10:03;5.18;;;2.33;;
70132;SDS011;57495;49.922;7.966;2023-02-28T01:12:06;6.60;;;1.85;;
70132;SDS011;57495;49.922;7.966;2023-02-28T01:14:09;4.90;;;2.15;;
70132;SDS011;57495;49.922;7.966;2023-02-28T01:16:13;5.47;;;1.95;;
70132;SDS011;57495;49.922;7.966;2023-02-28T01:18:15;5.93;;;2.08;;
70132;SDS011;57495;49.922;7.966;2023-02-28T01:20:17;5.22;;;2.20;;
70132;SDS011;57495;49.922;7.966;2023-02-28T01:22:19;4.60;;;2.08;;
70132;SDS011;57495;49.922;7.966;2023-02-28T01:24:23;4.68;;;1.90;;
70132;SDS011;57495;49.922;7.966;2023-02-28T01:26:24;4.43;;;1.80;;
70132;SDS011;57495;49.922;7.966;2023-02-28T01:28:26;5.10;;;2.00;;
70132;SDS011;57495;49.922;7.966;2023-02-28T01:30:29;6.80;;;1.95;;
70132;SDS011;57495;49.922;7.966;2023-02-28T01:32:31;7.00;;;1.75;;
70132;SDS011;57495;49.922;7.966;2023-02-28T01:34:32;4.32;;;1.77;;
70132;SDS011;57495;49.922;7.966;2023-02-28T01:36:34;5.22;;;1.90;;
70132;SDS011;57495;49.922;7.966;2023-02-28T01:38:36;4.90;;;2.10;;
70132;SDS011;57495;49.922;7.966;2023-02-28T01:40:40;5.78;;;1.90;;
70132;SDS011;57495;49.922;7.966;2023-02-28T01:42:41;4.60;;;1.88;;
70132;SDS011;57495;49.922;7.966;2023-02-28T01:45:01;4.85;;;2.00;;
70132;SDS011;57495;49.922;7.966;2023-02-28T01:47:08;4.82;;;1.92;;
70132;SDS011;57495;49.922;7.966;2023-02-28T01:49:11;5.10;;;1.65;;
70132;SDS011;57495;49.922;7.966;2023-02-28T01:51:17;6.10;;;2.30;;
70132;SDS011;57495;49.922;7.966;2023-02-28T01:53:23;8.57;;;2.67;;
70132;SDS011;57495;49.922;7.966;2023-02-28T01:55:33;5.28;;;2.10;;
70132;SDS011;57495;49.922;7.966;2023-02-28T01:57:36;4.93;;;2.13;;
70132;SDS011;57495;49.922;7.966;2023-02-28T01:59:42;5.57;;;2.10;;
70132;SDS011;57495;49.922;7.966;2023-02-28T02:01:49;5.68;;;2.70;;
70132;SDS011;57495;49.922;7.966;2023-02-28T02:03:53;7.72;;;2.35;;
70132;SDS011;57495;49.922;7.966;2023-02-28T02:05:56;8.30;;;2.05;;
70132;SDS011;57495;49.922;7.966;2023-02-28T02:08:00;7.00;;;2.25;;
70132;SDS011;57495;49.922;7.966;2023-02-28T02:10:05;6.00;;;2.63;;
70132;SDS011;57495;49.922;7.966;2023-02-28T02:12:13;5.28;;;2.35;;
70132;SDS011;57495;49.922;7.966;2023-02-28T02:14:29;5.30;;;2.10;;
70132;SDS011;57495;49.922;7.966;2023-02-28T02:16:49;6.72;;;2.20;;
70132;SDS011;57495;49.922;7.966;2023-02-28T02:19:06;6.07;;;2.20;;
70132;SDS011;57495;49.922;7.966;2023-02-28T02:24:07;4.30;;;2.00;;
70132;SDS011;57495;49.922;7.966;2023-02-28T02:26:42;6.32;;;2.53;;
70132;SDS011;57495;49.922;7.966;2023-02-28T02:28:56;7.80;;;2.55;;
70132;SDS011;57495;49.922;7.966;2023-02-28T02:31:21;8.70;;;2.58;;
70132;SDS011;57495;49.922;7.966;2023-02-28T02:36:19;6.22;;;2.53;;
70132;SDS011;57495;49.922;7.966;2023-02-28T02:38:29;6.18;;;2.70;;
70132;SDS011;57495;49.922;7.966;2023-02-28T02:40:35;6.50;;;2.80;;
70132;SDS011;57495;49.922;7.966;2023-02-28T02:42:45;5.53;;;2.30;;
70132;SDS011;57495;49.922;7.966;2023-02-28T02:44:52;8.32;;;2.80;;
70132;SDS011;57495;49.922;7.966;2023-02-28T02:46:59;6.40;;;3.00;;
70132;SDS011;57495;49.922;7.966;2023-02-28T02:49:08;6.22;;;3.03;;
70132;SDS011;57495;49.922;7.966;2023-02-28T02:51:14;5.30;;;2.55;;
70132;SDS011;57495;49.922;7.966;2023-02-28T02:53:20;7.25;;;2.70;;
70132;SDS011;57495;49.922;7.966;2023-02-28T02:55:28;6.53;;;2.53;;
70132;SDS011;57495;49.922;7.966;2023-02-28T02:57:33;5.75;;;2.60;;
70132;SDS011;57495;49.922;7.966;2023-02-28T02:59:39;5.80;;;2.75;;
70132;SDS011;57495;49.922;7.966;2023-02-28T03:01:43;5.70;;;2.47;;
70132;SDS011;57495;49.922;7.966;2023-02-28T03:03:45;5.72;;;2.60;;
70132;SDS011;57495;49.922;7.966;2023-02-28T03:05:48;7.97;;;2.65;;
70132;SDS011;57495;49.922;7.966;2023-02-28T03:07:50;7.47;;;3.03;;
70132;SDS011;57495;49.922;7.966;2023-02-28T03:09:54;5.82;;;3.03;;
70132;SDS011;57495;49.922;7.966;2023-02-28T03:11:57;7.85;;;2.85;;
70132;SDS011;57495;49.922;7.966;2023-02-28T03:14:02;5.57;;;2.58;;
70132;SDS011;57495;49.922;7.966;2023-02-28T03:16:35;6.32;;;3.05;;
70132;SDS011;57495;49.922;7.966;2023-02-28T03:18:44;5.05;;;2.28;;
70132;SDS011;57495;49.922;7.966;2023-02-28T03:20:56;5.68;;;2.55;;
70132;SDS011;57495;49.922;7.966;2023-02-28T03:23:13;8.13;;;2.55;;
70132;SDS011;57495;49.922;7.966;2023-02-28T03:25:20;6.88;;;2.47;;
70132;SDS011;57495;49.922;7.966;2023-02-28T03:27:29;6.93;;;2.80;;
70132;SDS011;57495;49.922;7.966;2023-02-28T03:29:35;6.70;;;3.20;;
70132;SDS011;57495;49.922;7.966;2023-02-28T03:31:41;5.82;;;2.58;;
70132;SDS011;57495;49.922;7.966;2023-02-28T03:33:49;5.35;;;2.40;;
70132;SDS011;57495;49.922;7.966;2023-02-28T03:35:56;4.90;;;2.20;;
70132;SDS011;57495;49.922;7.966;2023-02-28T03:38:03;6.50;;;2.50;;
70132;SDS011;57495;49.922;7.966;2023-02-28T03:40:14;7.38;;;2.33;;
70132;SDS011;57495;49.922;7.966;2023-02-28T03:42:23;5.30;;;2.50;;
70132;SDS011;57495;49.922;7.966;2023-02-28T03:44:28;5.57;;;2.20;;
70132;SDS011;57495;49.922;7.966;2023-02-28T03:46:35;6.95;;;2.65;;
70132;SDS011;57495;49.922;7.966;2023-02-28T03:48:40;6.32;;;2.42;;
70132;SDS011;57495;49.922;7.966;2023-02-28T03:50:49;5.63;;;2.40;;
70132;SDS011;57495;49.922;7.966;2023-02-28T03:52:55;6.93;;;2.30;;
70132;SDS011;57495;49.922;7.966;2023-02-28T03:55:02;6.90;;;3.00;;
70132;SDS011;57495;49.922;7.966;2023-02-28T03:57:10;4.93;;;2.25;;
70132;SDS011;57495;49.922;7.966;2023-02-28T03:59:20;5.13;;;2.10;;
70132;SDS011;57495;49.922;7.966;2023-02-28T04:01:28;4.68;;;1.90;;
70132;SDS011;57495;49.922;7.966;2023-02-28T04:03:35;6.38;;;2.30;;
70132;SDS011;57495;49.922;7.966;2023-02-28T04:05:44;6.57;;;2.35;;
70132;SDS011;57495;49.922;7.966;2023-02-28T04:07:50;4.90;;;2.30;;
70132;SDS011;57495;49.922;7.966;2023-02-28T04:09:52;5.05;;;2.08;;
70132;SDS011;57495;49.922;7.966;2023-02-28T04:11:54;4.32;;;1.60;;
70132;SDS011;57495;49.922;7.966;2023-02-28T04:13:56;5.35;;;2.17;;
70132;SDS011;57495;49.922;7.966;2023-02-28T04:15:59;5.78;;;2.00;;
70132;SDS011;57495;49.922;7.966;2023-02-28T04:18:00;5.95;;;1.83;;
70132;SDS011;57495;49.922;7.966;2023-02-28T04:20:02;4.53;;;1.92;;
70132;SDS011;57495;49.922;7.966;2023-02-28T04:22:09;4.80;;;1.90;;
70132;SDS011;57495;49.922;7.966;2023-02-28T04:24:11;6.05;;;2.20;;
70132;SDS011;57495;49.922;7.966;2023-02-28T04:26:14;4.32;;;1.92;;
70132;SDS011;57495;49.922;7.966;2023-02-28T04:28:16;5.70;;;1.90;;
70132;SDS011;57495;49.922;7.966;2023-02-28T04:30:17;5.78;;;2.13;;
70132;SDS011;57495;49.922;7.966;2023-02-28T04:32:21;5.75;;;2.25;;
70132;SDS011;57495;49.922;7.966;2023-02-28T04:34:23;4.20;;;1.90;;
70132;SDS011;57495;49.922;7.966;2023-02-28T04:36:25;4.55;;;2.03;;
70132;SDS011;57495;49.922;7.966;2023-02-28T04:38:28;4.55;;;2.08;;
70132;SDS011;57495;49.922;7.966;2023-02-28T04:40:33;4.43;;;2.00;;
70132;SDS011;57495;49.922;7.966;2023-02-28T04:42:34;6.32;;;1.90;;
70132;SDS011;57495;49.922;7.966;2023-02-28T04:44:36;5.72;;;2.20;;
70132;SDS011;57495;49.922;7.966;2023-02-28T04:46:37;5.32;;;1.80;;
70132;SDS011;57495;49.922;7.966;2023-02-28T04:48:40;4.97;;;1.83;;
70132;SDS011;57495;49.922;7.966;2023-02-28T04:50:43;5.18;;;1.77;;
70132;SDS011;57495;49.922;7.966;2023-02-28T04:52:45;5.18;;;1.67;;
70132;SDS011;57495;49.922;7.966;2023-02-28T04:54:46;6.22;;;2.05;;
70132;SDS011;57495;49.922;7.966;2023-02-28T04:56:49;5.38;;;2.38;;
70132;SDS011;57495;49.922;7.966;2023-02-28T04:58:50;4.63;;;2.00;;
70132;SDS011;57495;49.922;7.966;2023-02-28T05:00:53;5.45;;;1.80;;
70132;SDS011;57495;49.922;7.966;2023-02-28T05:02:55;5.68;;;1.90;;
70132;SDS011;57495;49.922;7.966;2023-02-28T05:04:58;5.60;;;2.15;;
70132;SDS011;57495;49.922;7.966;2023-02-28T05:07:00;4.45;;;1.77;;
70132;SDS011;57495;49.922;7.966;2023-02-28T05:09:02;4.75;;;1.83;;
70132;SDS011;57495;49.922;7.966;2023-02-28T05:11:03;5.03;;;2.00;;
70132;SDS011;57495;49.922;7.966;2023-02-28T05:13:08;5.05;;;1.73;;
70132;SDS011;57495;49.922;7.966;2023-02-28T05:15:12;5.05;;;1.75;;
70132;SDS011;57495;49.922;7.966;2023-02-28T05:17:14;5.28;;;1.90;;
70132;SDS011;57495;49.922;7.966;2023-02-28T05:19:15;5.30;;;1.80;;
70132;SDS011;57495;49.922;7.966;2023-02-28T05:21:26;6.43;;;2.20;;
70132;SDS011;57495;49.922;7.966;2023-02-28T05:23:29;4.65;;;1.88;;
70132;SDS011;57495;49.922;7.966;2023-02-28T05:25:31;5.88;;;1.88;;
70132;SDS011;57495;49.922;7.966;2023-02-28T05:27:32;5.30;;;1.92;;
70132;SDS011;57495;49.922;7.966;2023-02-28T05:29:34;5.22;;;1.88;;
70132;SDS011;57495;49.922;7.966;2023-02-28T05:31:43;4.85;;;2.00;;
70132;SDS011;57495;49.922;7.966;2023-02-28T05:33:44;4.65;;;2.15;;
70132;SDS011;57495;49.922;7.966;2023-02-28T05:35:46;4.63;;;1.85;;
70132;SDS011;57495;49.922;7.966;2023-02-28T05:37:48;4.95;;;2.10;;
70132;SDS011;57495;49.922;7.966;2023-02-28T05:39:50;5.22;;;1.90;;
70132;SDS011;57495;49.922;7.966;2023-02-28T05:41:52;5.82;;;2.00;;
70132;SDS011;57495;49.922;7.966;2023-02-28T05:43:53;10.88;;;4.93;;
70132;SDS011;57495;49.922;7.966;2023-02-28T05:45:54;9.23;;;3.85;;
70132;SDS011;57495;49.922;7.966;2023-02-28T05:47:56;8.15;;;3.17;;
70132;SDS011;57495;49.922;7.966;2023-02-28T05:49:59;6.25;;;2.40;;
70132;SDS011;57495;49.922;7.966;2023-02-28T05:52:01;5.85;;;2.20;;
70132;SDS011;57495;49.922;7.966;2023-02-28T05:54:04;6.25;;;2.28;;
70132;SDS011;57495;49.922;7.966;2023-02-28T05:56:06;4.63;;;2.03;;
70132;SDS011;57495;49.922;7.966;2023-02-28T05:58:07;6.63;;;2.05;;
70132;SDS011;57495;49.922;7.966;2023-02-28T06:00:09;4.90;;;1.60;;
70132;SDS011;57495;49.922;7.966;2023-02-28T06:02:13;5.25;;;1.83;;
70132;SDS011;57495;49.922;7.966;2023-02-28T06:04:16;4.72;;;1.77;;
70132;SDS011;57495;49.922;7.966;2023-02-28T06:06:21;4.88;;;1.80;;
70132;SDS011;57495;49.922;7.966;2023-02-28T06:08:25;5.25;;;1.95;;
70132;SDS011;57495;49.922;7.966;2023-02-28T06:10:31;5.07;;;1.50;;
70132;SDS011;57495;49.922;7.966;2023-02-28T06:12:32;4.30;;;1.70;;
70132;SDS011;57495;49.922;7.966;2023-02-28T06:14:33;4.05;;;1.70;;
70132;SDS011;57495;49.922;7.966;2023-02-28T06:16:36;7.82;;;1.67;;
70132;SDS011;57495;49.922;7.966;2023-02-28T06:18:37;5.15;;;2.55;;
70132;SDS011;57495;49.922;7.966;2023-02-28T06:20:39;4.63;;;1.55;;
70132;SDS011;57495;49.922;7.966;2023-02-28T06:22:40;3.97;;;1.58;;
70132;SDS011;57495;49.922;7.966;2023-02-28T06:24:42;5.50;;;1.85;;
70132;SDS011;57495;49.922;7.966;2023-02-28T06:26:45;5.25;;;1.88;;
70132;SDS011;57495;49.922;7.966;2023-02-28T06:28:47;4.65;;;1.80;;
70132;SDS011;57495;49.922;7.966;2023-02-28T06:30:51;5.82;;;1.70;;
70132;SDS011;57495;49.922;7.966;2023-02-28T06:32:53;5.03;;;2.10;;
70132;SDS011;57495;49.922;7.966;2023-02-28T06:34:56;4.90;;;2.10;;
70132;SDS011;57495;49.922;7.966;2023-02-28T06:36:58;5.68;;;2.28;;
70132;SDS011;57495;49.922;7.966;2023-02-28T06:39:02;5.35;;;1.77;;
70132;SDS011;57495;49.922;7.966;2023-02-28T06:41:04;4.85;;;1.95;;
70132;SDS011;57495;49.922;7.966;2023-02-28T06:43:07;5.65;;;1.95;;
70132;SDS011;57495;49.922;7.966;2023-02-28T06:45:09;6.78;;;2.20;;
70132;SDS011;57495;49.922;7.966;2023-02-28T06:47:13;5.82;;;2.10;;
70132;SDS011;57495;49.922;7.966;2023-02-28T06:49:15;5.72;;;2.35;;
70132;SDS011;57495;49.922;7.966;2023-02-28T06:51:17;7.05;;;2.70;;
70132;SDS011;57495;49.922;7.966;2023-02-28T06:53:22;6.20;;;2.25;;
70132;SDS011;57495;49.922;7.966;2023-02-28T06:55:23;5.28;;;1.88;;
70132;SDS011;57495;49.922;7.966;2023-02-28T06:57:25;6.45;;;2.13;;
70132;SDS011;57495;49.922;7.966;2023-02-28T06:59:28;6.40;;;2.50;;
70132;SDS011;57495;49.922;7.966;2023-02-28T07:01:29;6.97;;;2.67;;
70132;SDS011;57495;49.922;7.966;2023-02-28T07:03:31;5.18;;;2.38;;
70132;SDS011;57495;49.922;7.966;2023-02-28T07:05:36;4.72;;;1.83;;
70132;SDS011;57495;49.922;7.966;2023-02-28T07:07:38;6.35;;;1.80;;
70132;SDS011;57495;49.922;7.966;2023-02-28T07:09:43;4.95;;;1.88;;
70132;SDS011;57495;49.922;7.966;2023-02-28T07:11:47;4.82;;;2.00;;
70132;SDS011;57495;49.922;7.966;2023-02-28T07:13:51;5.25;;;1.52;;
70132;SDS011;57495;49.922;7.966;2023-02-28T07:15:55;6.35;;;1.60;;
70132;SDS011;57495;49.922;7.966;2023-02-28T07:17:57;6.18;;;2.10;;
70132;SDS011;57495;49.922;7.966;2023-02-28T07:20:01;5.97;;;1.63;;
70132;SDS011;57495;49.922;7.966;2023-02-28T07:22:04;5.93;;;2.00;;
70132;SDS011;57495;49.922;7.966;2023-02-28T07:24:06;6.03;;;1.70;;
70132;SDS011;57495;49.922;7.966;2023-02-28T07:26:09;5.35;;;1.60;;
70132;SDS011;57495;49.922;7.966;2023-02-28T07:28:14;4.63;;;1.67;;
70132;SDS011;57495;49.922;7.966;2023-02-28T07:30:16;6.45;;;2.00;;
70132;SDS011;57495;49.922;7.966;2023-02-28T07:32:20;5.15;;;1.80;;
70132;SDS011;57495;49.922;7.966;2023-02-28T07:34:21;5.40;;;1.77;;
70132;SDS011;57495;49.922;7.966;2023-02-28T07:36:23;4.43;;;1.73;;
70132;SDS011;57495;49.922;7.966;2023-02-28T07:38:25;5.03;;;1.52;;
70132;SDS011;57495;49.922;7.966;2023-02-28T07:40:47;5.95;;;1.80;;
70132;SDS011;57495;49.922;7.966;2023-02-28T07:42:48;6.05;;;1.67;;
70132;SDS011;57495;49.922;7.966;2023-02-28T07:44:50;4.95;;;1.90;;
70132;SDS011;57495;49.922;7.966;2023-02-28T07:46:53;5.45;;;1.77;;
70132;SDS011;57495;49.922;7.966;2023-02-28T07:48:57;4.55;;;1.80;;
70132;SDS011;57495;49.922;7.966;2023-02-28T07:51:01;4.18;;;1.55;;
70132;SDS011;57495;49.922;7.966;2023-02-28T07:53:03;7.97;;;1.88;;
70132;SDS011;57495;49.922;7.966;2023-02-28T07:55:07;7.72;;;1.60;;
70132;SDS011;57495;49.922;7.966;2023-02-28T07:57:10;7.20;;;1.67;;
70132;SDS011;57495;49.922;7.966;2023-02-28T07:59:19;5.22;;;2.00;;
70132;SDS011;57495;49.922;7.966;2023-02-28T08:01:21;9.27;;;2.08;;
70132;SDS011;57495;49.922;7.966;2023-02-28T08:03:23;4.82;;;1.70;;
70132;SDS011;57495;49.922;7.966;2023-02-28T08:05:26;4.80;;;1.90;;
70132;SDS011;57495;49.922;7.966;2023-02-28T08:09:49;4.80;;;2.03;;
70132;SDS011;57495;49.922;7.966;2023-02-28T08:11:51;6.35;;;2.10;;
70132;SDS011;57495;49.922;7.966;2023-02-28T08:16:17;4.43;;;1.60;;
70132;SDS011;57495;49.922;7.966;2023-02-28T08:18:22;5.03;;;1.85;;
70132;SDS011;57495;49.922;7.966;2023-02-28T08:28:49;7.13;;;2.08;;
70132;SDS011;57495;49.922;7.966;2023-02-28T08:30:51;5.28;;;1.88;;
70132;SDS011;57495;49.922;7.966;2023-02-28T08:35:40;6.95;;;2.17;;
70132;SDS011;57495;49.922;7.966;2023-02-28T08:37:41;6.78;;;2.15;;
70132;SDS011;57495;49.922;7.966;2023-02-28T08:39:43;4.82;;;1.80;;
70132;SDS011;57495;49.922;7.966;2023-02-28T08:41:44;5.47;;;2.40;;
70132;SDS011;57495;49.922;7.966;2023-02-28T08:43:47;7.20;;;2.53;;
70132;SDS011;57495;49.922;7.966;2023-02-28T08:45:50;6.40;;;2.05;;
70132;SDS011;57495;49.922;7.966;2023-02-28T08:47:56;6.43;;;2.13;;
70132;SDS011;57495;49.922;7.966;2023-02-28T08:49:58;7.43;;;2.70;;
70132;SDS011;57495;49.922;7.966;2023-02-28T08:52:02;5.68;;;2.40;;
70132;SDS011;57495;49.922;7.966;2023-02-28T08:54:03;5.80;;;2.53;;
70132;SDS011;57495;49.922;7.966;2023-02-28T08:56:06;5.72;;;2.28;;
70132;SDS011;57495;49.922;7.966;2023-02-28T08:58:09;4.93;;;2.13;;
70132;SDS011;57495;49.922;7.966;2023-02-28T09:00:12;6.97;;;2.80;;
70132;SDS011;57495;49.922;7.966;2023-02-28T09:02:14;6.95;;;2.45;;
70132;SDS011;57495;49.922;7.966;2023-02-28T09:04:16;5.57;;;2.47;;
70132;SDS011;57495;49.922;7.966;2023-02-28T09:06:18;6.00;;;2.67;;
70132;SDS011;57495;49.922;7.966;2023-02-28T09:08:20;5.85;;;2.53;;
70132;SDS011;57495;49.922;7.966;2023-02-28T09:10:22;7.35;;;3.00;;
70132;SDS011;57495;49.922;7.966;2023-02-28T09:12:24;8.23;;;3.10;;
70132;SDS011;57495;49.922;7.966;2023-02-28T09:14:27;6.88;;;3.38;;
70132;SDS011;57495;49.922;7.966;2023-02-28T09:16:30;6.65;;;2.80;;
70132;SDS011;57495;49.922;7.966;2023-02-28T09:18:33;6.72;;;3.13;;
70132;SDS011;57495;49.922;7.966;2023-02-28T09:20:37;6.70;;;2.92;;
70132;SDS011;57495;49.922;7.966;2023-02-28T09:22:39;9.23;;;3.00;;
70132;SDS011;57495;49.922;7.966;2023-02-28T09:24:41;7.78;;;3.55;;
70132;SDS011;57495;49.922;7.966;2023-02-28T09:26:42;5.63;;;2.55;;
70132;SDS011;57495;49.922;7.966;2023-02-28T09:28:44;7.43;;;3.17;;
70132;SDS011;57495;49.922;7.966;2023-02-28T09:30:47;6.53;;;3.25;;
70132;SDS011;57495;49.922;7.966;2023-02-28T09:32:54;6.10;;;2.65;;
70132;SDS011;57495;49.922;7.966;2023-02-28T09:34:55;8.43;;;3.53;;
70132;SDS011;57495;49.922;7.966;2023-02-28T09:36:57;8.57;;;3.30;;
70132;SDS011;57495;49.922;7.966;2023-02-28T09:39:00;7.22;;;3.00;;
70132;SDS011;57495;49.922;7.966;2023-02-28T09:41:03;6.35;;;2.60;;
70132;SDS011;57495;49.922;7.966;2023-02-28T09:43:10;7.03;;;3.10;;
70132;SDS011;57495;49.922;7.966;2023-02-28T09:45:18;6.53;;;3.17;;
70132;SDS011;57495;49.922;7.966;2023-02-28T09:47:25;11.70;;;3.25;;
70132;SDS011;57495;49.922;7.966;2023-02-28T09:49:33;6.35;;;3.13;;
70132;SDS011;57495;49.922;7.966;2023-02-28T09:51:40;7.30;;;3.50;;
70132;SDS011;57495;49.922;7.966;2023-02-28T09:53:49;6.32;;;2.80;;
70132;SDS011;57495;49.922;7.966;2023-02-28T09:55:55;9.48;;;2.80;;
70132;SDS011;57495;49.922;7.966;2023-02-28T09:57:59;5.97;;;2.90;;
70132;SDS011;57495;49.922;7.966;2023-02-28T10:00:06;6.93;;;3.90;;
70132;SDS011;57495;49.922;7.966;2023-02-28T10:02:21;7.18;;;3.22;;
70132;SDS011;57495;49.922;7.966;2023-02-28T10:04:44;7.10;;;3.00;;
70132;SDS011;57495;49.922;7.966;2023-02-28T10:06:51;16.52;;;5.78;;
70132;SDS011;57495;49.922;7.966;2023-02-28T10:08:55;7.15;;;3.10;;
70132;SDS011;57495;49.922;7.966;2023-02-28T10:11:02;5.75;;;2.60;;
70132;SDS011;57495;49.922;7.966;2023-02-28T10:13:13;7.50;;;2.88;;
70132;SDS011;57495;49.922;7.966;2023-02-28T10:15:18;7.13;;;3.05;;
70132;SDS011;57495;49.922;7.966;2023-02-28T10:17:25;7.00;;;3.10;;
70132;SDS011;57495;49.922;7.966;2023-02-28T10:19:32;7.03;;;3.10;;
70132;SDS011;57495;49.922;7.966;2023-02-28T10:21:42;5.95;;;3.03;;
70132;SDS011;57495;49.922;7.966;2023-02-28T10:23:47;7.53;;;3.33;;
70132;SDS011;57495;49.922;7.966;2023-02-28T10:25:50;6.22;;;2.90;;
70132;SDS011;57495;49.922;7.966;2023-02-28T10:27:57;7.32;;;2.95;;
70132;SDS011;57495;49.922;7.966;2023-02-28T10:30:03;6.07;;;3.05;;
70132;SDS011;57495;49.922;7.966;2023-02-28T10:32:06;5.60;;;2.90;;
70132;SDS011;57495;49.922;7.966;2023-02-28T10:34:08;6.72;;;2.97;;
70132;SDS011;57495;49.922;7.966;2023-02-28T10:36:13;6.75;;;3.05;;
70132;SDS011;57495;49.922;7.966;2023-02-28T10:38:21;7.20;;;3.20;;
70132;SDS011;57495;49.922;7.966;2023-02-28T10:40:26;6.85;;;3.30;;
70132;SDS011;57495;49.922;7.966;2023-02-28T10:42:32;7.28;;;3.13;;
70132;SDS011;57495;49.922;7.966;2023-02-28T10:44:38;6.43;;;3.40;;
70132;SDS011;57495;49.922;7.966;2023-02-28T10:46:40;8.13;;;3.20;;
70132;SDS011;57495;49.922;7.966;2023-02-28T10:48:43;5.60;;;3.30;;
70132;SDS011;57495;49.922;7.966;2023-02-28T10:50:50;6.22;;;2.90;;
70132;SDS011;57495;49.922;7.966;2023-02-28T10:53:00;5.70;;;3.10;;
70132;SDS011;57495;49.922;7.966;2023-02-28T10:55:15;6.10;;;3.20;;
70132;SDS011;57495;49.922;7.966;2023-02-28T10:57:21;5.03;;;2.53;;
70132;SDS011;57495;49.922;7.966;2023-02-28T10:59:26;5.38;;;2.90;;
70132;SDS011;57495;49.922;7.966;2023-02-28T11:01:37;6.18;;;2.88;;
70132;SDS011;57495;49.922;7.966;2023-02-28T11:03:40;5.03;;;2.38;;
70132;SDS011;57495;49.922;7.966;2023-02-28T11:05:43;6.28;;;2.88;;
70132;SDS011;57495;49.922;7.966;2023-02-28T11:07:50;5.78;;;3.15;;
70132;SDS011;57495;49.922;7.966;2023-02-28T11:09:52;7.28;;;3.40;;
70132;SDS011;57495;49.922;7.966;2023-02-28T11:11:57;6.85;;;3.25;;
70132;SDS011;57495;49.922;7.966;2023-02-28T11:14:02;7.65;;;3.45;;
70132;SDS011;57495;49.922;7.966;2023-02-28T11:16:06;7.57;;;3.80;;
70132;SDS011;57495;49.922;7.966;2023-02-28T11:18:18;6.35;;;3.10;;
70132;SDS011;57495;49.922;7.966;2023-02-28T11:20:25;6.97;;;3.28;;
70132;SDS011;57495;49.922;7.966;2023-02-28T11:22:29;6.25;;;3.22;;
70132;SDS011;57495;49.922;7.966;2023-02-28T11:24:36;7.88;;;3.03;;
70132;SDS011;57495;49.922;7.966;2023-02-28T11:26:43;6.15;;;3.10;;
70132;SDS011;57495;49.922;7.966;2023-02-28T11:28:48;6.32;;;2.90;;
70132;SDS011;57495;49.922;7.966;2023-02-28T11:31:06;6.10;;;2.90;;
70132;SDS011;57495;49.922;7.966;2023-02-28T11:33:23;6.15;;;3.28;;
70132;SDS011;57495;49.922;7.966;2023-02-28T11:35:30;5.93;;;3.17;;
70132;SDS011;57495;49.922;7.966;2023-02-28T11:37:36;7.00;;;3.20;;
70132;SDS011;57495;49.922;7.966;2023-02-28T11:39:38;6.93;;;3.67;;
70132;SDS011;57495;49.922;7.966;2023-02-28T11:41:45;6.40;;;3.35;;
70132;SDS011;57495;49.922;7.966;2023-02-28T11:44:13;6.43;;;3.50;;
70132;SDS011;57495;49.922;7.966;2023-02-28T11:46:37;8.00;;;3.40;;
70132;SDS011;57495;49.922;7.966;2023-02-28T11:48:44;7.40;;;3.25;;
70132;SDS011;57495;49.922;7.966;2023-02-28T11:51:01;8.52;;;3.35;;
70132;SDS011;57495;49.922;7.966;2023-02-28T11:53:10;7.10;;;3.30;;
70132;SDS011;57495;49.922;7.966;2023-02-28T11:55:21;7.82;;;3.53;;
70132;SDS011;57495;49.922;7.966;2023-02-28T11:57:32;6.57;;;3.45;;
70132;SDS011;57495;49.922;7.966;2023-02-28T11:59:48;7.88;;;3.50;;
70132;SDS011;57495;49.922;7.966;2023-02-28T12:02:08;6.55;;;3.60;;
70132;SDS011;57495;49.922;7.966;2023-02-28T12:04:25;8.38;;;3.40;;
70132;SDS011;57495;49.922;7.966;2023-02-28T12:06:36;6.93;;;3.33;;
70132;SDS011;57495;49.922;7.966;2023-02-28T12:08:47;7.55;;;3.67;;
70132;SDS011;57495;49.922;7.966;2023-02-28T12:10:58;6.43;;;3.45;;
70132;SDS011;57495;49.922;7.966;2023-02-28T12:13:10;6.63;;;3.58;;
70132;SDS011;57495;49.922;7.966;2023-02-28T12:15:34;6.53;;;3.70;;
70132;SDS011;57495;49.922;7.966;2023-02-28T12:17:49;6.25;;;3.17;;
70132;SDS011;57495;49.922;7.966;2023-02-28T12:20:02;8.23;;;3.63;;
70132;SDS011;57495;49.922;7.966;2023-02-28T12:22:19;6.13;;;3.47;;
70132;SDS011;57495;49.922;7.966;2023-02-28T12:27:00;10.38;;;4.03;;
70132;SDS011;57495;49.922;7.966;2023-02-28T12:29:13;6.93;;;3.72;;
70132;SDS011;57495;49.922;7.966;2023-02-28T12:31:23;7.10;;;3.55;;
70132;SDS011;57495;49.922;7.966;2023-02-28T12:33:28;7.05;;;3.40;;
70132;SDS011;57495;49.922;7.966;2023-02-28T12:35:35;6.95;;;3.72;;
70132;SDS011;57495;49.922;7.966;2023-02-28T12:37:40;6.45;;;3.55;;
70132;SDS011;57495;49.922;7.966;2023-02-28T12:39:46;6.78;;;3.45;;
70132;SDS011;57495;49.922;7.966;2023-02-28T12:41:53;8.57;;;3.70;;
70132;SDS011;57495;49.922;7.966;2023-02-28T12:44:01;6.18;;;3.40;;
70132;SDS011;57495;49.922;7.966;2023-02-28T12:46:07;6.68;;;3.28;;
70132;SDS011;57495;49.922;7.966;2023-02-28T12:48:13;7.45;;;3.88;;
70132;SDS011;57495;49.922;7.966;2023-02-28T12:50:19;9.10;;;3.33;;
70132;SDS011;57495;49.922;7.966;2023-02-28T12:52:23;7.03;;;3.63;;
70132;SDS011;57495;49.922;7.966;2023-02-28T12:54:32;7.72;;;4.00;;
70132;SDS011;57495;49.922;7.966;2023-02-28T12:56:45;6.97;;;3.70;;
70132;SDS011;57495;49.922;7.966;2023-02-28T12:58:51;7.35;;;3.88;;